createdAt,value
2022-08-11T00:01:56.126Z,3.47
2022-08-11T00:04:25.711Z,3.60
2022-08-11T00:06:55.059Z,3.10
2022-08-11T00:09:31.620Z,3.42
2022-08-11T00:12:14.796Z,4.20
2022-08-11T00:14:43.074Z,3.33
2022-08-11T00:17:13.061Z,3.85
2022-08-11T00:20:15.170Z,3.30
2022-08-11T00:22:32.442Z,3.47
2022-08-11T00:25:08.817Z,3.53
2022-08-11T00:27:37.048Z,3.60
2022-08-11T00:30:09.068Z,3.85
2022-08-11T00:32:38.143Z,3.95
2022-08-11T00:35:54.810Z,3.08
2022-08-11T00:37:56.679Z,3.88
2022-08-11T00:40:50.514Z,3.40
2022-08-11T00:43:34.664Z,3.40
2022-08-11T00:46:10.929Z,3.60
2022-08-11T00:48:43.541Z,4.05
2022-08-11T00:51:25.465Z,3.50
2022-08-11T00:54:16.698Z,4.00
2022-08-11T00:57:05.098Z,3.15
2022-08-11T01:00:17.029Z,3.88
2022-08-11T01:03:14.458Z,3.85
2022-08-11T01:06:21.084Z,3.40
2022-08-11T01:09:22.364Z,3.85
2022-08-11T01:11:56.355Z,3.47
2022-08-11T01:14:54.280Z,3.58
2022-08-11T01:17:26.902Z,3.55
2022-08-11T01:20:48.459Z,3.63
2022-08-11T01:23:33.693Z,3.42
2022-08-11T01:26:37.841Z,4.13
2022-08-11T01:29:31.112Z,4.28
2022-08-11T01:32:12.757Z,3.85
2022-08-11T01:35:13.251Z,3.80
2022-08-11T01:37:54.655Z,3.65
2022-08-11T01:40:38.345Z,3.80
2022-08-11T01:44:00.824Z,3.88
2022-08-11T01:46:50.329Z,4.15
2022-08-11T01:50:08.589Z,3.30
2022-08-11T01:52:33.699Z,3.50
2022-08-11T01:55:01.802Z,3.83
2022-08-11T01:58:08.646Z,3.92
2022-08-11T02:00:53.785Z,4.10
2022-08-11T02:03:44.824Z,4.10
2022-08-11T02:06:29.898Z,4.07
2022-08-11T02:09:10.255Z,4.45
2022-08-11T02:11:38.215Z,3.90
2022-08-11T02:14:39.813Z,4.22
2022-08-11T02:17:09.547Z,3.88
2022-08-11T02:20:13.711Z,4.03
2022-08-11T02:23:10.244Z,3.78
2022-08-11T02:25:53.713Z,4.03
2022-08-11T02:28:28.960Z,4.18
2022-08-11T02:32:24.831Z,4.28
2022-08-11T02:34:59.615Z,3.90
2022-08-11T02:37:32.807Z,4.20
2022-08-11T02:39:59.363Z,3.90
2022-08-11T02:42:44.642Z,3.92
2022-08-11T02:45:48.375Z,3.97
2022-08-11T02:48:55.139Z,3.67
2022-08-11T02:51:59.115Z,4.20
2022-08-11T02:54:37.834Z,4.30
2022-08-11T02:57:11.735Z,3.38
2022-08-11T03:02:31.500Z,3.95
2022-08-11T03:05:12.171Z,4.10
2022-08-11T03:07:57.122Z,4.05
2022-08-11T03:10:41.513Z,4.10
2022-08-11T03:13:41.378Z,3.85
2022-08-11T03:16:35.889Z,4.55
2022-08-11T03:19:21.898Z,3.85
2022-08-11T03:22:02.961Z,3.72
2022-08-11T03:24:36.196Z,4.45
2022-08-11T03:27:11.144Z,4.22
2022-08-11T03:29:44.903Z,3.65
2022-08-11T03:32:33.017Z,4.07
2022-08-11T03:35:02.539Z,3.90
2022-08-11T03:37:54.968Z,4.78
2022-08-11T03:40:54.079Z,3.95
2022-08-11T03:43:26.920Z,3.60
2022-08-11T03:46:13.209Z,3.90
2022-08-11T03:48:53.533Z,4.35
2022-08-11T03:51:44.718Z,4.22
2022-08-11T03:54:22.190Z,4.18
2022-08-11T03:57:16.967Z,4.45
2022-08-11T04:00:10.247Z,4.35
2022-08-11T04:02:53.576Z,4.28
2022-08-11T04:05:54.040Z,4.53
2022-08-11T04:08:45.427Z,4.38
2022-08-11T04:11:32.075Z,3.85
2022-08-11T04:14:52.204Z,4.47
2022-08-11T04:17:34.335Z,4.90
2022-08-11T04:20:06.917Z,4.15
2022-08-11T04:22:45.495Z,4.72
2022-08-11T04:25:31.035Z,4.28
2022-08-11T04:28:09.694Z,3.78
2022-08-11T04:31:51.033Z,3.63
2022-08-11T04:34:18.794Z,4.22
2022-08-11T04:37:34.575Z,4.20
2022-08-11T04:40:04.082Z,4.13
2022-08-11T04:43:14.310Z,4.30
2022-08-11T04:45:50.718Z,4.38
2022-08-11T04:48:35.825Z,4.13
2022-08-11T04:52:09.855Z,4.07
2022-08-11T04:55:29.114Z,4.63
2022-08-11T04:58:20.465Z,4.25
2022-08-11T05:01:18.244Z,4.82
2022-08-11T05:04:33.120Z,3.90
2022-08-11T05:07:14.496Z,3.90
2022-08-11T05:09:48.661Z,4.25
2022-08-11T05:12:21.735Z,4.30
2022-08-11T05:15:10.190Z,3.90
2022-08-11T05:18:21.391Z,4.07
2022-08-11T05:21:10.568Z,4.38
2022-08-11T05:24:00.849Z,4.35
2022-08-11T05:26:49.975Z,4.45
2022-08-11T05:30:04.712Z,4.97
2022-08-11T05:33:02.907Z,4.05
2022-08-11T05:36:01.896Z,4.85
2022-08-11T05:38:52.395Z,4.38
2022-08-11T05:41:43.935Z,4.45
2022-08-11T05:44:30.285Z,4.30
2022-08-11T05:47:16.550Z,4.28
2022-08-11T05:50:08.965Z,4.45
2022-08-11T05:53:04.430Z,4.57
2022-08-11T05:56:02.315Z,4.55
2022-08-11T05:58:42.672Z,3.85
2022-08-11T06:01:13.141Z,3.90
2022-08-11T06:04:03.643Z,4.18
2022-08-11T06:06:31.019Z,4.47
2022-08-11T06:08:59.714Z,3.80
2022-08-11T06:11:44.424Z,4.90
2022-08-11T06:14:13.409Z,4.13
2022-08-11T06:16:42.758Z,4.18
2022-08-11T06:19:10.617Z,4.05
2022-08-11T06:21:37.927Z,4.10
2022-08-11T06:24:11.878Z,4.57
2022-08-11T06:29:37.877Z,4.43
2022-08-11T06:32:15.381Z,4.05
2022-08-11T06:35:19.736Z,4.47
2022-08-11T06:38:16.247Z,4.45
2022-08-11T06:41:18.098Z,4.35
2022-08-11T06:43:55.564Z,4.20
2022-08-11T06:46:32.027Z,3.83
2022-08-11T06:49:02.747Z,3.97
2022-08-11T06:51:32.373Z,3.17
2022-08-11T06:54:04.364Z,4.30
2022-08-11T07:00:02.245Z,4.10
2022-08-11T07:02:35.500Z,4.13
2022-08-11T07:05:28.937Z,3.83
2022-08-11T07:08:46.869Z,3.95
2022-08-11T07:12:07.976Z,4.00
2022-08-11T07:14:58.918Z,4.10
2022-08-11T07:17:29.227Z,3.72
2022-08-11T07:20:18.331Z,4.22
2022-08-11T07:23:10.850Z,3.85
2022-08-11T07:26:00.252Z,5.30
2022-08-11T07:28:48.516Z,4.45
2022-08-11T07:31:24.442Z,3.80
2022-08-11T07:34:08.240Z,4.97
2022-08-11T07:36:42.871Z,3.90
2022-08-11T07:39:21.034Z,3.88
2022-08-11T07:41:49.031Z,4.65
2022-08-11T07:44:17.173Z,4.15
2022-08-11T07:47:05.892Z,3.53
2022-08-11T07:49:55.328Z,3.67
2022-08-11T07:52:33.772Z,3.45
2022-08-11T07:55:08.610Z,4.00
2022-08-11T07:58:15.266Z,3.60
2022-08-11T08:01:09.905Z,3.60
2022-08-11T08:03:57.364Z,3.67
2022-08-11T08:06:43.267Z,3.30
2022-08-11T08:09:29.224Z,3.20
2022-08-11T08:12:15.397Z,3.25
2022-08-11T08:15:01.555Z,3.47
2022-08-11T08:18:09.799Z,3.50
2022-08-11T08:20:44.659Z,3.78
2022-08-11T08:23:11.771Z,3.78
2022-08-11T08:25:42.175Z,3.95
2022-08-11T08:28:32.325Z,3.92
2022-08-11T08:30:59.767Z,3.28
2022-08-11T08:33:29.259Z,4.00
2022-08-11T08:36:15.051Z,2.80
2022-08-11T08:38:43.567Z,2.95
2022-08-11T08:41:13.067Z,3.50
2022-08-11T08:43:48.377Z,3.20
2022-08-11T08:46:19.596Z,3.47
2022-08-11T08:48:47.509Z,3.00
2022-08-11T08:52:01.007Z,2.83
2022-08-11T08:54:25.557Z,2.80
2022-08-11T08:56:55.706Z,2.97
2022-08-11T08:59:26.025Z,3.55
2022-08-11T09:02:00.791Z,3.00
2022-08-11T09:04:29.079Z,2.72
2022-08-11T09:07:00.881Z,2.70
2022-08-11T09:09:30.079Z,2.97
2022-08-11T09:11:57.008Z,3.17
2022-08-11T09:14:25.095Z,3.00
2022-08-11T09:16:53.236Z,3.40
2022-08-11T09:19:21.519Z,3.45
2022-08-11T09:22:09.591Z,3.85
2022-08-11T09:24:55.852Z,2.72
2022-08-11T09:27:23.221Z,3.38
2022-08-11T09:29:51.024Z,3.50
2022-08-11T09:32:22.059Z,3.80
2022-08-11T09:34:52.148Z,3.08
2022-08-11T09:37:55.603Z,4.22
2022-08-11T09:40:30.470Z,2.83
2022-08-11T09:43:23.587Z,2.90
2022-08-11T09:45:53.025Z,3.15
2022-08-11T09:48:22.121Z,3.38
2022-08-11T09:50:52.302Z,2.83
2022-08-11T09:53:36.392Z,2.92
2022-08-11T09:56:36.056Z,3.50
2022-08-11T09:59:04.632Z,3.42
2022-08-11T10:01:41.739Z,2.60
2022-08-11T10:04:41.802Z,3.00
2022-08-11T10:07:10.887Z,3.42
2022-08-11T10:09:49.117Z,2.80
2022-08-11T10:12:24.532Z,2.97
2022-08-11T10:15:15.871Z,2.88
2022-08-11T10:18:06.266Z,2.92
2022-08-11T10:20:35.664Z,2.67
2022-08-11T10:23:21.940Z,3.17
2022-08-11T10:26:07.616Z,3.38
2022-08-11T10:28:50.121Z,4.00
2022-08-11T10:31:57.522Z,2.80
2022-08-11T10:34:29.173Z,3.50
2022-08-11T10:36:57.207Z,2.78
2022-08-11T10:39:24.554Z,3.15
2022-08-11T10:42:17.073Z,2.83
2022-08-11T10:44:54.546Z,2.90
2022-08-11T10:47:44.352Z,2.78
2022-08-11T10:50:34.599Z,3.17
2022-08-11T10:53:21.071Z,3.00
2022-08-11T10:56:06.932Z,3.22
2022-08-11T10:58:49.076Z,2.70
2022-08-11T11:01:31.788Z,3.40
2022-08-11T11:04:01.939Z,2.85
2022-08-11T11:06:59.422Z,2.72
2022-08-11T11:09:32.415Z,3.28
2022-08-11T11:12:25.882Z,2.45
2022-08-11T11:15:17.391Z,2.67
2022-08-11T11:18:01.922Z,3.08
2022-08-11T11:20:47.056Z,2.35
2022-08-11T11:23:32.965Z,3.78
2022-08-11T11:26:27.581Z,3.03
2022-08-11T11:29:06.753Z,2.92
2022-08-11T11:31:48.301Z,3.40
2022-08-11T11:34:14.833Z,3.05
2022-08-11T11:36:58.238Z,3.33
2022-08-11T11:39:31.394Z,2.80
2022-08-11T11:42:05.065Z,3.63
2022-08-11T11:47:01.278Z,2.92
2022-08-11T11:49:29.876Z,3.20
2022-08-11T11:51:58.421Z,3.10
2022-08-11T11:54:28.831Z,3.30
2022-08-11T11:56:57.595Z,2.47
2022-08-11T11:59:46.312Z,3.38
2022-08-11T12:02:15.971Z,2.72
2022-08-11T12:04:45.597Z,2.75
2022-08-11T12:07:31.590Z,3.15
2022-08-11T12:09:59.105Z,2.90
2022-08-11T12:12:44.652Z,2.60
2022-08-11T12:15:12.097Z,3.25
2022-08-11T12:17:39.708Z,3.15
2022-08-11T12:20:31.731Z,3.15
2022-08-11T12:23:14.652Z,2.97
2022-08-11T12:26:25.788Z,2.60
2022-08-11T12:28:49.908Z,3.67
2022-08-11T12:31:16.741Z,3.08
2022-08-11T12:33:44.563Z,3.10
2022-08-11T12:36:15.839Z,2.67
2022-08-11T12:38:45.881Z,4.25
2022-08-11T12:41:39.486Z,3.95
2022-08-11T12:44:29.863Z,2.88
2022-08-11T12:47:02.018Z,5.03
2022-08-11T12:49:51.757Z,2.85
2022-08-11T12:52:25.406Z,3.08
2022-08-11T12:55:02.804Z,3.10
2022-08-11T12:57:55.733Z,2.72
2022-08-11T13:00:43.017Z,3.00
2022-08-11T13:03:29.935Z,3.42
2022-08-11T13:05:59.993Z,3.28
2022-08-11T13:08:29.619Z,2.72
2022-08-11T13:11:18.967Z,2.65
2022-08-11T13:13:53.539Z,3.42
2022-08-11T13:16:28.716Z,2.85
2022-08-11T13:18:57.517Z,2.80
2022-08-11T13:21:26.217Z,2.95
2022-08-11T13:24:00.734Z,2.80
2022-08-11T13:26:47.226Z,3.00
2022-08-11T13:29:22.047Z,2.80
2022-08-11T13:31:49.093Z,2.55
2022-08-11T13:34:17.692Z,3.28
2022-08-11T13:36:45.390Z,3.85
2022-08-11T13:39:13.499Z,2.80
2022-08-11T13:41:42.277Z,3.20
2022-08-11T13:44:12.118Z,2.78
2022-08-11T13:46:40.315Z,2.72
2022-08-11T13:49:11.366Z,2.58
2022-08-11T13:51:40.066Z,3.10
2022-08-11T13:54:10.398Z,2.97
2022-08-11T13:56:39.912Z,2.92
2022-08-11T13:59:08.670Z,2.58
2022-08-11T14:02:19.835Z,3.00
2022-08-11T14:04:39.515Z,2.63
2022-08-11T14:07:08.967Z,2.50
2022-08-11T14:09:39.954Z,2.40
2022-08-11T14:12:41.425Z,3.03
2022-08-11T14:15:20.158Z,2.88
2022-08-11T14:17:57.366Z,3.00
2022-08-11T14:20:39.661Z,3.30
2022-08-11T14:23:11.117Z,2.92
2022-08-11T14:26:02.412Z,2.72
2022-08-11T14:28:38.832Z,2.70
2022-08-11T14:31:12.704Z,3.10
2022-08-11T14:34:00.645Z,2.65
2022-08-11T14:36:31.305Z,2.78
2022-08-11T14:38:58.607Z,2.55
2022-08-11T14:42:10.898Z,2.38
2022-08-11T14:44:53.144Z,2.80
2022-08-11T14:47:24.759Z,2.50
2022-08-11T14:50:04.990Z,2.70
2022-08-11T14:52:44.722Z,2.70
2022-08-11T14:55:31.656Z,2.75
2022-08-11T14:57:58.968Z,3.15
2022-08-11T15:00:26.733Z,3.33
2022-08-11T15:03:10.872Z,2.50
2022-08-11T15:05:57.952Z,2.83
2022-08-11T15:08:56.716Z,3.08
2022-08-11T15:11:47.174Z,2.95
2022-08-11T15:14:14.787Z,2.83
2022-08-11T15:17:02.901Z,2.80
2022-08-11T15:19:40.106Z,2.92
2022-08-11T15:22:28.714Z,2.75
2022-08-11T15:24:57.524Z,2.60
2022-08-11T15:27:44.639Z,3.17
2022-08-11T15:30:33.843Z,2.97
2022-08-11T15:33:28.166Z,2.92
2022-08-11T15:36:15.241Z,3.00
2022-08-11T15:38:55.224Z,3.30
2022-08-11T15:41:54.495Z,3.05
2022-08-11T15:45:02.274Z,3.38
2022-08-11T15:47:41.641Z,3.58
2022-08-11T15:50:15.268Z,2.80
2022-08-11T15:52:58.597Z,3.10
2022-08-11T15:55:26.533Z,2.95
2022-08-11T15:58:13.587Z,2.67
2022-08-11T16:01:04.436Z,3.03
2022-08-11T16:04:07.769Z,3.25
2022-08-11T16:06:47.757Z,3.08
2022-08-11T16:09:20.970Z,2.78
2022-08-11T16:11:59.011Z,2.60
2022-08-11T16:14:58.036Z,3.42
2022-08-11T16:17:27.023Z,2.60
2022-08-11T16:19:58.751Z,3.55
2022-08-11T16:22:40.189Z,3.35
2022-08-11T16:27:03.506Z,3.15
2022-08-11T16:28:06.271Z,3.15
2022-08-11T16:30:39.039Z,3.45
2022-08-11T16:33:48.622Z,3.17
2022-08-11T16:36:13.939Z,3.67
2022-08-11T16:38:41.726Z,3.00
2022-08-11T16:41:38.446Z,3.35
2022-08-11T16:44:37.329Z,3.50
2022-08-11T16:47:13.497Z,3.83
2022-08-11T16:49:52.746Z,2.90
2022-08-11T16:52:21.285Z,3.40
2022-08-11T16:54:48.900Z,3.17
2022-08-11T16:57:37.448Z,2.70
2022-08-11T17:00:12.476Z,3.40
2022-08-11T17:03:10.762Z,3.47
2022-08-11T17:06:03.037Z,3.25
2022-08-11T17:08:57.407Z,3.00
2022-08-11T17:11:47.888Z,3.60
2022-08-11T17:14:58.675Z,3.30
2022-08-11T17:17:33.733Z,3.70
2022-08-11T17:20:41.419Z,3.83
2022-08-11T17:23:18.814Z,3.40
2022-08-11T17:25:58.718Z,3.75
2022-08-11T17:28:33.074Z,3.78
2022-08-11T17:31:22.713Z,4.18
2022-08-11T17:34:10.581Z,3.17
2022-08-11T17:36:41.523Z,3.33
2022-08-11T17:39:13.309Z,3.50
2022-08-11T17:41:59.066Z,3.50
2022-08-11T17:44:45.779Z,3.45
2022-08-11T17:47:32.782Z,3.90
2022-08-11T17:50:15.410Z,3.15
2022-08-11T17:53:05.179Z,4.07
2022-08-11T17:55:54.025Z,3.38
2022-08-11T17:58:42.890Z,4.35
2022-08-11T18:01:12.199Z,3.67
2022-08-11T18:03:56.424Z,3.10
2022-08-11T18:06:33.991Z,3.78
2022-08-11T18:12:48.725Z,4.30
2022-08-11T18:15:33.894Z,3.80
2022-08-11T18:18:19.361Z,3.85
2022-08-11T18:21:05.265Z,3.97
2022-08-11T18:23:50.628Z,4.30
2022-08-11T18:26:39.604Z,3.80
2022-08-11T18:29:26.961Z,3.90
2022-08-11T18:32:21.312Z,3.60
2022-08-11T18:35:13.776Z,3.50
2022-08-11T18:38:04.609Z,3.95
2022-08-11T18:40:51.371Z,3.53
2022-08-11T18:43:40.759Z,3.72
2022-08-11T18:46:28.737Z,3.80
2022-08-11T18:49:26.614Z,3.80
2022-08-11T18:52:22.216Z,3.95
2022-08-11T18:55:10.390Z,3.83
2022-08-11T18:58:01.848Z,3.47
2022-08-11T19:00:48.321Z,3.72
2022-08-11T19:03:48.688Z,3.55
2022-08-11T19:06:39.771Z,4.20
2022-08-11T19:09:29.405Z,3.47
2022-08-11T19:12:16.806Z,3.90
2022-08-11T19:15:04.874Z,3.50
2022-08-11T19:17:52.661Z,4.38
2022-08-11T19:20:42.933Z,3.80
2022-08-11T19:23:30.746Z,3.63
2022-08-11T19:26:17.722Z,3.70
2022-08-11T19:29:06.553Z,3.53
2022-08-11T19:31:52.905Z,3.53
2022-08-11T19:34:40.661Z,3.63
2022-08-11T19:37:27.593Z,3.60
2022-08-11T19:40:16.920Z,3.53
2022-08-11T19:43:03.605Z,3.75
2022-08-11T19:45:52.323Z,3.45
2022-08-11T19:48:40.382Z,4.25
2022-08-11T19:51:28.801Z,3.67
2022-08-11T19:54:15.136Z,4.00
2022-08-11T19:57:02.429Z,3.63
2022-08-11T19:59:49.379Z,3.70
2022-08-11T20:02:35.230Z,4.55
2022-08-11T20:05:21.103Z,3.97
2022-08-11T20:08:06.797Z,4.30
2022-08-11T20:10:54.681Z,3.72
2022-08-11T20:13:42.669Z,4.25
2022-08-11T20:16:32.223Z,3.90
2022-08-11T20:19:20.038Z,3.72
2022-08-11T20:22:14.970Z,3.80
2022-08-11T20:25:01.932Z,3.70
2022-08-11T20:27:47.248Z,3.45
2022-08-11T20:30:33.109Z,3.65
2022-08-11T20:33:19.487Z,4.00
2022-08-11T20:36:07.930Z,3.35
2022-08-11T20:38:55.945Z,3.83
2022-08-11T20:41:58.181Z,3.88
2022-08-11T20:44:46.199Z,3.72
2022-08-11T20:47:56.282Z,4.38
2022-08-11T20:50:41.274Z,3.95
2022-08-11T20:53:28.489Z,3.80
2022-08-11T20:56:16.267Z,3.95
2022-08-11T20:59:21.884Z,3.45
2022-08-11T21:02:10.662Z,4.05
2022-08-11T21:05:00.281Z,3.83
2022-08-11T21:07:57.130Z,3.50
2022-08-11T21:10:51.629Z,3.42
2022-08-11T21:13:38.731Z,3.88
2022-08-11T21:16:27.472Z,3.13
2022-08-11T21:19:56.381Z,3.72
2022-08-11T21:22:43.336Z,3.63
2022-08-11T21:25:47.871Z,3.22
2022-08-11T21:28:37.265Z,3.75
2022-08-11T21:31:24.489Z,3.70
2022-08-11T21:34:10.201Z,3.58
2022-08-11T21:36:55.356Z,3.33
2022-08-11T21:39:42.127Z,3.63
2022-08-11T21:42:29.692Z,3.15
2022-08-11T21:45:17.109Z,2.88
2022-08-11T21:48:03.322Z,3.28
2022-08-11T21:50:48.500Z,3.30
2022-08-11T21:53:34.785Z,3.47
2022-08-11T21:56:22.057Z,3.78
2022-08-11T21:59:13.076Z,3.38
2022-08-11T22:01:58.486Z,3.72
2022-08-11T22:04:44.239Z,3.78
2022-08-11T22:07:30.646Z,4.68
2022-08-11T22:10:36.940Z,3.42
2022-08-11T22:13:24.831Z,3.30
2022-08-11T22:16:09.986Z,3.78
2022-08-11T22:18:55.904Z,3.65
2022-08-11T22:22:02.691Z,3.50
2022-08-11T22:24:49.156Z,3.45
2022-08-11T22:27:34.594Z,2.97
2022-08-11T22:30:19.984Z,3.17
2022-08-11T22:33:05.764Z,3.88
2022-08-11T22:35:51.053Z,3.63
2022-08-11T22:38:37.295Z,3.28
2022-08-11T22:41:22.565Z,4.20
2022-08-11T22:44:07.888Z,3.60
2022-08-11T22:46:54.664Z,3.55
2022-08-11T22:49:57.039Z,3.42
2022-08-11T22:52:44.507Z,3.53
2022-08-11T22:55:29.722Z,3.50
2022-08-11T22:58:15.016Z,3.40
2022-08-11T23:01:00.877Z,3.72
2022-08-11T23:03:47.274Z,3.28
2022-08-11T23:06:33.194Z,3.83
2022-08-11T23:09:20.381Z,3.15
2022-08-11T23:12:10.289Z,3.67
2022-08-11T23:14:57.826Z,3.70
2022-08-11T23:17:44.761Z,3.58
2022-08-11T23:20:52.546Z,3.78
2022-08-11T23:23:37.124Z,3.28
2022-08-11T23:26:22.961Z,3.22
2022-08-11T23:29:08.198Z,3.47
2022-08-11T23:31:56.053Z,3.83
2022-08-11T23:35:04.252Z,2.85
2022-08-11T23:37:54.062Z,3.95
2022-08-11T23:40:39.407Z,3.05
2022-08-11T23:43:25.675Z,4.13
2022-08-11T23:46:10.938Z,3.72
2022-08-11T23:48:57.753Z,3.42
2022-08-11T23:51:45.239Z,3.55
2022-08-11T23:54:36.594Z,3.50
2022-08-11T23:57:23.597Z,3.92
